sensor_id;sensor_type;location;lat;lon;timestamp;P1;durP1;ratioP1;P2;durP2;ratioP2
15198;SDS011;7700;48.654;9.070;2023-07-20T00:02:01;3.35;;;2.30;;
15198;SDS011;7700;48.654;9.070;2023-07-20T00:04:27;2.53;;;1.90;;
15198;SDS011;7700;48.654;9.070;2023-07-20T00:06:53;2.20;;;1.88;;
15198;SDS011;7700;48.654;9.070;2023-07-20T00:09:19;4.68;;;2.15;;
15198;SDS011;7700;48.654;9.070;2023-07-20T00:11:49;2.75;;;2.10;;
15198;SDS011;7700;48.654;9.070;2023-07-20T00:14:16;2.63;;;1.90;;
15198;SDS011;7700;48.654;9.070;2023-07-20T00:16:42;4.15;;;2.10;;
15198;SDS011;7700;48.654;9.070;2023-07-20T00:19:08;2.20;;;1.92;;
15198;SDS011;7700;48.654;9.070;2023-07-20T00:21:35;3.30;;;2.05;;
15198;SDS011;7700;48.654;9.070;2023-07-20T00:24:02;3.38;;;2.63;;
15198;SDS011;7700;48.654;9.070;2023-07-20T00:26:28;3.35;;;1.90;;
15198;SDS011;7700;48.654;9.070;2023-07-20T00:28:54;2.22;;;2.00;;
15198;SDS011;7700;48.654;9.070;2023-07-20T00:31:20;2.65;;;1.90;;
15198;SDS011;7700;48.654;9.070;2023-07-20T00:33:46;2.75;;;1.98;;
15198;SDS011;7700;48.654;9.070;2023-07-20T00:36:12;2.45;;;2.13;;
15198;SDS011;7700;48.654;9.070;2023-07-20T00:38:38;3.35;;;2.03;;
15198;SDS011;7700;48.654;9.070;2023-07-20T00:41:04;3.13;;;2.20;;
15198;SDS011;7700;48.654;9.070;2023-07-20T00:43:30;2.97;;;2.20;;
15198;SDS011;7700;48.654;9.070;2023-07-20T00:45:56;2.33;;;1.77;;
15198;SDS011;7700;48.654;9.070;2023-07-20T00:48:22;3.38;;;2.35;;
15198;SDS011;7700;48.654;9.070;2023-07-20T00:50:49;4.00;;;1.90;;
15198;SDS011;7700;48.654;9.070;2023-07-20T00:53:15;2.30;;;2.10;;
15198;SDS011;7700;48.654;9.070;2023-07-20T00:55:41;2.65;;;2.33;;
15198;SDS011;7700;48.654;9.070;2023-07-20T00:58:07;2.47;;;2.15;;
15198;SDS011;7700;48.654;9.070;2023-07-20T01:00:34;5.95;;;2.30;;
15198;SDS011;7700;48.654;9.070;2023-07-20T01:03:00;4.07;;;2.40;;
15198;SDS011;7700;48.654;9.070;2023-07-20T01:05:28;2.40;;;2.08;;
15198;SDS011;7700;48.654;9.070;2023-07-20T01:07:58;3.92;;;2.40;;
15198;SDS011;7700;48.654;9.070;2023-07-20T01:13:00;3.55;;;2.17;;
15198;SDS011;7700;48.654;9.070;2023-07-20T01:15:27;3.40;;;2.35;;
15198;SDS011;7700;48.654;9.070;2023-07-20T01:17:53;3.63;;;2.28;;
15198;SDS011;7700;48.654;9.070;2023-07-20T01:20:20;4.05;;;2.58;;
15198;SDS011;7700;48.654;9.070;2023-07-20T01:25:38;2.22;;;2.05;;
15198;SDS011;7700;48.654;9.070;2023-07-20T01:30:43;4.72;;;2.25;;
15198;SDS011;7700;48.654;9.070;2023-07-20T01:33:14;3.17;;;2.35;;
15198;SDS011;7700;48.654;9.070;2023-07-20T01:35:41;4.00;;;2.50;;
15198;SDS011;7700;48.654;9.070;2023-07-20T01:38:09;2.67;;;2.35;;
15198;SDS011;7700;48.654;9.070;2023-07-20T01:40:35;2.70;;;2.45;;
15198;SDS011;7700;48.654;9.070;2023-07-20T01:43:02;3.80;;;2.70;;
15198;SDS011;7700;48.654;9.070;2023-07-20T01:45:28;3.05;;;2.40;;
15198;SDS011;7700;48.654;9.070;2023-07-20T01:47:54;2.83;;;2.53;;
15198;SDS011;7700;48.654;9.070;2023-07-20T01:50:20;3.00;;;2.35;;
15198;SDS011;7700;48.654;9.070;2023-07-20T01:52:46;5.65;;;2.50;;
15198;SDS011;7700;48.654;9.070;2023-07-20T01:55:11;3.20;;;2.45;;
15198;SDS011;7700;48.654;9.070;2023-07-20T01:57:37;3.30;;;2.88;;
15198;SDS011;7700;48.654;9.070;2023-07-20T02:00:03;3.75;;;2.55;;
15198;SDS011;7700;48.654;9.070;2023-07-20T02:02:29;3.85;;;2.13;;
15198;SDS011;7700;48.654;9.070;2023-07-20T02:04:55;4.10;;;2.40;;
15198;SDS011;7700;48.654;9.070;2023-07-20T02:07:21;3.58;;;2.42;;
15198;SDS011;7700;48.654;9.070;2023-07-20T02:09:47;2.83;;;2.42;;
15198;SDS011;7700;48.654;9.070;2023-07-20T02:12:13;3.05;;;2.30;;
15198;SDS011;7700;48.654;9.070;2023-07-20T02:14:39;3.10;;;2.65;;
15198;SDS011;7700;48.654;9.070;2023-07-20T02:17:05;2.92;;;2.70;;
15198;SDS011;7700;48.654;9.070;2023-07-20T02:19:31;3.10;;;2.42;;
15198;SDS011;7700;48.654;9.070;2023-07-20T02:21:57;3.38;;;2.22;;
15198;SDS011;7700;48.654;9.070;2023-07-20T02:24:23;3.25;;;2.42;;
15198;SDS011;7700;48.654;9.070;2023-07-20T02:26:50;2.40;;;2.20;;
15198;SDS011;7700;48.654;9.070;2023-07-20T02:29:16;3.58;;;2.47;;
15198;SDS011;7700;48.654;9.070;2023-07-20T02:31:42;3.35;;;3.03;;
15198;SDS011;7700;48.654;9.070;2023-07-20T02:34:08;2.63;;;2.42;;
15198;SDS011;7700;48.654;9.070;2023-07-20T02:36:35;2.78;;;2.58;;
15198;SDS011;7700;48.654;9.070;2023-07-20T02:39:01;3.47;;;2.40;;
15198;SDS011;7700;48.654;9.070;2023-07-20T02:41:33;4.22;;;2.38;;
15198;SDS011;7700;48.654;9.070;2023-07-20T02:43:59;4.95;;;2.60;;
15198;SDS011;7700;48.654;9.070;2023-07-20T02:46:25;3.13;;;2.10;;
15198;SDS011;7700;48.654;9.070;2023-07-20T02:48:51;3.75;;;2.92;;
15198;SDS011;7700;48.654;9.070;2023-07-20T02:51:17;2.38;;;2.15;;
15198;SDS011;7700;48.654;9.070;2023-07-20T02:53:43;3.38;;;2.17;;
15198;SDS011;7700;48.654;9.070;2023-07-20T02:56:08;3.65;;;3.00;;
15198;SDS011;7700;48.654;9.070;2023-07-20T02:58:34;4.13;;;2.50;;
15198;SDS011;7700;48.654;9.070;2023-07-20T03:01:03;3.40;;;2.20;;
15198;SDS011;7700;48.654;9.070;2023-07-20T03:03:29;2.53;;;2.33;;
15198;SDS011;7700;48.654;9.070;2023-07-20T03:05:55;2.40;;;2.20;;
15198;SDS011;7700;48.654;9.070;2023-07-20T03:08:24;2.88;;;2.42;;
15198;SDS011;7700;48.654;9.070;2023-07-20T03:10:50;3.25;;;2.33;;
15198;SDS011;7700;48.654;9.070;2023-07-20T03:13:16;2.97;;;2.42;;
15198;SDS011;7700;48.654;9.070;2023-07-20T03:15:42;5.30;;;2.22;;
15198;SDS011;7700;48.654;9.070;2023-07-20T03:18:08;4.28;;;2.45;;
15198;SDS011;7700;48.654;9.070;2023-07-20T03:20:35;3.75;;;2.35;;
15198;SDS011;7700;48.654;9.070;2023-07-20T03:23:01;3.28;;;2.92;;
15198;SDS011;7700;48.654;9.070;2023-07-20T03:25:27;2.58;;;2.25;;
15198;SDS011;7700;48.654;9.070;2023-07-20T03:27:53;4.18;;;2.40;;
15198;SDS011;7700;48.654;9.070;2023-07-20T03:30:19;2.72;;;2.03;;
15198;SDS011;7700;48.654;9.070;2023-07-20T03:32:45;2.50;;;2.30;;
15198;SDS011;7700;48.654;9.070;2023-07-20T03:35:11;2.92;;;2.63;;
15198;SDS011;7700;48.654;9.070;2023-07-20T03:37:37;6.00;;;2.85;;
15198;SDS011;7700;48.654;9.070;2023-07-20T03:40:03;2.83;;;2.60;;
15198;SDS011;7700;48.654;9.070;2023-07-20T03:42:30;4.38;;;2.97;;
15198;SDS011;7700;48.654;9.070;2023-07-20T03:44:56;3.53;;;2.30;;
15198;SDS011;7700;48.654;9.070;2023-07-20T03:47:22;3.67;;;2.22;;
15198;SDS011;7700;48.654;9.070;2023-07-20T03:49:49;3.45;;;2.22;;
15198;SDS011;7700;48.654;9.070;2023-07-20T03:52:15;2.47;;;2.28;;
15198;SDS011;7700;48.654;9.070;2023-07-20T03:54:41;2.88;;;2.42;;
15198;SDS011;7700;48.654;9.070;2023-07-20T03:57:07;2.13;;;1.98;;
15198;SDS011;7700;48.654;9.070;2023-07-20T03:59:34;4.35;;;2.33;;
15198;SDS011;7700;48.654;9.070;2023-07-20T04:02:00;2.55;;;2.35;;
15198;SDS011;7700;48.654;9.070;2023-07-20T04:04:26;2.63;;;2.42;;
15198;SDS011;7700;48.654;9.070;2023-07-20T04:06:53;3.47;;;2.47;;
15198;SDS011;7700;48.654;9.070;2023-07-20T04:09:19;2.83;;;2.63;;
15198;SDS011;7700;48.654;9.070;2023-07-20T04:11:45;3.08;;;2.78;;
15198;SDS011;7700;48.654;9.070;2023-07-20T04:14:11;2.90;;;2.70;;
15198;SDS011;7700;48.654;9.070;2023-07-20T04:16:37;3.45;;;2.65;;
15198;SDS011;7700;48.654;9.070;2023-07-20T04:19:03;4.72;;;2.50;;
15198;SDS011;7700;48.654;9.070;2023-07-20T04:21:29;3.78;;;2.42;;
15198;SDS011;7700;48.654;9.070;2023-07-20T04:23:55;4.25;;;2.72;;
15198;SDS011;7700;48.654;9.070;2023-07-20T04:26:21;5.78;;;2.72;;
15198;SDS011;7700;48.654;9.070;2023-07-20T04:28:47;4.13;;;2.42;;
15198;SDS011;7700;48.654;9.070;2023-07-20T04:31:13;3.38;;;2.72;;
15198;SDS011;7700;48.654;9.070;2023-07-20T04:33:40;2.63;;;2.42;;
15198;SDS011;7700;48.654;9.070;2023-07-20T04:36:06;2.88;;;2.58;;
15198;SDS011;7700;48.654;9.070;2023-07-20T04:38:32;4.55;;;2.50;;
15198;SDS011;7700;48.654;9.070;2023-07-20T04:40:58;2.65;;;2.28;;
15198;SDS011;7700;48.654;9.070;2023-07-20T04:43:24;3.30;;;2.50;;
15198;SDS011;7700;48.654;9.070;2023-07-20T04:45:50;3.10;;;2.60;;
15198;SDS011;7700;48.654;9.070;2023-07-20T04:48:16;5.65;;;2.60;;
15198;SDS011;7700;48.654;9.070;2023-07-20T04:50:43;3.60;;;2.70;;
15198;SDS011;7700;48.654;9.070;2023-07-20T04:53:10;3.55;;;2.47;;
15198;SDS011;7700;48.654;9.070;2023-07-20T04:55:36;2.80;;;2.47;;
15198;SDS011;7700;48.654;9.070;2023-07-20T04:58:03;3.25;;;2.33;;
15198;SDS011;7700;48.654;9.070;2023-07-20T05:00:29;4.63;;;2.38;;
15198;SDS011;7700;48.654;9.070;2023-07-20T05:02:55;5.22;;;2.80;;
15198;SDS011;7700;48.654;9.070;2023-07-20T05:05:21;5.88;;;3.28;;
15198;SDS011;7700;48.654;9.070;2023-07-20T05:07:47;3.13;;;2.85;;
15198;SDS011;7700;48.654;9.070;2023-07-20T05:10:13;4.18;;;2.78;;
15198;SDS011;7700;48.654;9.070;2023-07-20T05:12:39;5.20;;;3.17;;
15198;SDS011;7700;48.654;9.070;2023-07-20T05:15:05;3.55;;;2.83;;
15198;SDS011;7700;48.654;9.070;2023-07-20T05:17:31;4.75;;;2.85;;
15198;SDS011;7700;48.654;9.070;2023-07-20T05:19:57;2.97;;;2.78;;
15198;SDS011;7700;48.654;9.070;2023-07-20T05:22:23;7.07;;;2.83;;
15198;SDS011;7700;48.654;9.070;2023-07-20T05:24:49;3.85;;;2.58;;
15198;SDS011;7700;48.654;9.070;2023-07-20T05:27:16;5.18;;;3.15;;
15198;SDS011;7700;48.654;9.070;2023-07-20T05:29:45;6.35;;;3.15;;
15198;SDS011;7700;48.654;9.070;2023-07-20T05:32:11;3.30;;;2.90;;
15198;SDS011;7700;48.654;9.070;2023-07-20T05:34:37;3.15;;;2.85;;
15198;SDS011;7700;48.654;9.070;2023-07-20T05:37:02;4.88;;;3.05;;
15198;SDS011;7700;48.654;9.070;2023-07-20T05:39:28;6.43;;;2.88;;
15198;SDS011;7700;48.654;9.070;2023-07-20T05:41:54;4.93;;;3.40;;
15198;SDS011;7700;48.654;9.070;2023-07-20T05:44:20;7.22;;;2.92;;
15198;SDS011;7700;48.654;9.070;2023-07-20T05:46:46;8.23;;;3.13;;
15198;SDS011;7700;48.654;9.070;2023-07-20T05:49:12;6.90;;;3.00;;
15198;SDS011;7700;48.654;9.070;2023-07-20T05:51:38;6.20;;;2.70;;
15198;SDS011;7700;48.654;9.070;2023-07-20T05:54:04;5.18;;;2.50;;
15198;SDS011;7700;48.654;9.070;2023-07-20T05:56:30;4.25;;;2.75;;
15198;SDS011;7700;48.654;9.070;2023-07-20T05:58:56;4.72;;;2.65;;
15198;SDS011;7700;48.654;9.070;2023-07-20T06:01:22;8.15;;;2.80;;
15198;SDS011;7700;48.654;9.070;2023-07-20T06:03:48;4.07;;;2.58;;
15198;SDS011;7700;48.654;9.070;2023-07-20T06:06:14;3.95;;;2.70;;
15198;SDS011;7700;48.654;9.070;2023-07-20T06:08:40;3.95;;;2.58;;
15198;SDS011;7700;48.654;9.070;2023-07-20T06:11:06;4.22;;;2.90;;
15198;SDS011;7700;48.654;9.070;2023-07-20T06:13:31;4.40;;;2.85;;
15198;SDS011;7700;48.654;9.070;2023-07-20T06:15:57;2.65;;;2.40;;
15198;SDS011;7700;48.654;9.070;2023-07-20T06:18:23;5.82;;;2.78;;
15198;SDS011;7700;48.654;9.070;2023-07-20T06:20:50;3.30;;;2.38;;
15198;SDS011;7700;48.654;9.070;2023-07-20T06:23:16;4.43;;;2.58;;
15198;SDS011;7700;48.654;9.070;2023-07-20T06:25:42;4.10;;;2.50;;
15198;SDS011;7700;48.654;9.070;2023-07-20T06:28:08;5.05;;;2.30;;
15198;SDS011;7700;48.654;9.070;2023-07-20T06:30:34;3.55;;;2.13;;
15198;SDS011;7700;48.654;9.070;2023-07-20T06:33:00;3.53;;;2.33;;
15198;SDS011;7700;48.654;9.070;2023-07-20T06:35:26;3.75;;;1.98;;
15198;SDS011;7700;48.654;9.070;2023-07-20T06:37:52;7.05;;;2.60;;
15198;SDS011;7700;48.654;9.070;2023-07-20T06:40:18;4.68;;;2.10;;
15198;SDS011;7700;48.654;9.070;2023-07-20T06:42:44;4.35;;;2.80;;
15198;SDS011;7700;48.654;9.070;2023-07-20T06:45:10;2.78;;;1.80;;
15198;SDS011;7700;48.654;9.070;2023-07-20T06:47:39;3.30;;;1.95;;
15198;SDS011;7700;48.654;9.070;2023-07-20T06:50:09;3.05;;;2.20;;
15198;SDS011;7700;48.654;9.070;2023-07-20T06:52:35;3.78;;;2.20;;
15198;SDS011;7700;48.654;9.070;2023-07-20T06:55:01;4.05;;;2.10;;
15198;SDS011;7700;48.654;9.070;2023-07-20T06:57:27;3.28;;;2.28;;
15198;SDS011;7700;48.654;9.070;2023-07-20T06:59:53;4.22;;;2.20;;
15198;SDS011;7700;48.654;9.070;2023-07-20T07:02:19;2.70;;;2.25;;
15198;SDS011;7700;48.654;9.070;2023-07-20T07:04:45;2.30;;;1.85;;
15198;SDS011;7700;48.654;9.070;2023-07-20T07:07:13;3.25;;;2.42;;
15198;SDS011;7700;48.654;9.070;2023-07-20T07:09:39;2.50;;;2.10;;
15198;SDS011;7700;48.654;9.070;2023-07-20T07:12:05;2.55;;;1.88;;
15198;SDS011;7700;48.654;9.070;2023-07-20T07:14:31;3.65;;;2.10;;
15198;SDS011;7700;48.654;9.070;2023-07-20T07:16:57;4.38;;;2.15;;
15198;SDS011;7700;48.654;9.070;2023-07-20T07:19:23;4.10;;;1.83;;
15198;SDS011;7700;48.654;9.070;2023-07-20T07:21:49;4.75;;;2.30;;
15198;SDS011;7700;48.654;9.070;2023-07-20T07:24:15;4.70;;;2.50;;
15198;SDS011;7700;48.654;9.070;2023-07-20T07:26:41;3.00;;;2.10;;
15198;SDS011;7700;48.654;9.070;2023-07-20T07:29:07;4.00;;;2.05;;
15198;SDS011;7700;48.654;9.070;2023-07-20T07:31:34;2.63;;;1.90;;
15198;SDS011;7700;48.654;9.070;2023-07-20T07:34:03;3.67;;;2.00;;
15198;SDS011;7700;48.654;9.070;2023-07-20T07:36:30;2.33;;;2.00;;
15198;SDS011;7700;48.654;9.070;2023-07-20T07:38:56;4.57;;;2.08;;
15198;SDS011;7700;48.654;9.070;2023-07-20T07:41:22;5.28;;;2.45;;
15198;SDS011;7700;48.654;9.070;2023-07-20T07:43:48;3.65;;;2.30;;
15198;SDS011;7700;48.654;9.070;2023-07-20T07:46:14;4.60;;;2.17;;
15198;SDS011;7700;48.654;9.070;2023-07-20T07:48:40;3.30;;;2.10;;
15198;SDS011;7700;48.654;9.070;2023-07-20T07:51:06;3.38;;;2.08;;
15198;SDS011;7700;48.654;9.070;2023-07-20T07:53:32;3.38;;;2.60;;
15198;SDS011;7700;48.654;9.070;2023-07-20T07:56:00;2.72;;;2.38;;
15198;SDS011;7700;48.654;9.070;2023-07-20T07:58:28;2.35;;;2.03;;
15198;SDS011;7700;48.654;9.070;2023-07-20T08:00:54;3.13;;;2.38;;
15198;SDS011;7700;48.654;9.070;2023-07-20T08:03:19;4.03;;;2.35;;
15198;SDS011;7700;48.654;9.070;2023-07-20T08:05:46;2.75;;;2.15;;
15198;SDS011;7700;48.654;9.070;2023-07-20T08:08:12;3.97;;;2.22;;
15198;SDS011;7700;48.654;9.070;2023-07-20T08:10:38;2.47;;;2.28;;
15198;SDS011;7700;48.654;9.070;2023-07-20T08:13:04;2.83;;;2.10;;
15198;SDS011;7700;48.654;9.070;2023-07-20T08:15:30;4.47;;;2.40;;
15198;SDS011;7700;48.654;9.070;2023-07-20T08:17:56;3.72;;;2.10;;
15198;SDS011;7700;48.654;9.070;2023-07-20T08:20:22;3.97;;;2.30;;
15198;SDS011;7700;48.654;9.070;2023-07-20T08:22:51;5.60;;;2.33;;
15198;SDS011;7700;48.654;9.070;2023-07-20T08:25:18;2.75;;;2.42;;
15198;SDS011;7700;48.654;9.070;2023-07-20T08:27:44;4.05;;;2.33;;
15198;SDS011;7700;48.654;9.070;2023-07-20T08:30:12;3.03;;;2.22;;
15198;SDS011;7700;48.654;9.070;2023-07-20T08:32:38;2.75;;;1.90;;
15198;SDS011;7700;48.654;9.070;2023-07-20T08:35:04;4.82;;;2.20;;
15198;SDS011;7700;48.654;9.070;2023-07-20T08:37:31;4.05;;;2.10;;
15198;SDS011;7700;48.654;9.070;2023-07-20T08:39:56;2.38;;;2.05;;
15198;SDS011;7700;48.654;9.070;2023-07-20T08:42:22;1.70;;;1.60;;
15198;SDS011;7700;48.654;9.070;2023-07-20T08:44:49;3.28;;;2.03;;
15198;SDS011;7700;48.654;9.070;2023-07-20T08:47:15;2.95;;;2.15;;
15198;SDS011;7700;48.654;9.070;2023-07-20T08:49:42;2.15;;;1.55;;
15198;SDS011;7700;48.654;9.070;2023-07-20T08:52:08;2.78;;;2.10;;
15198;SDS011;7700;48.654;9.070;2023-07-20T08:54:34;2.70;;;1.90;;
15198;SDS011;7700;48.654;9.070;2023-07-20T08:57:04;2.40;;;1.77;;
15198;SDS011;7700;48.654;9.070;2023-07-20T08:59:31;2.65;;;2.00;;
15198;SDS011;7700;48.654;9.070;2023-07-20T09:02:00;3.58;;;2.47;;
15198;SDS011;7700;48.654;9.070;2023-07-20T09:04:27;6.35;;;2.03;;
15198;SDS011;7700;48.654;9.070;2023-07-20T09:06:53;3.65;;;1.85;;
15198;SDS011;7700;48.654;9.070;2023-07-20T09:09:19;3.00;;;1.80;;
15198;SDS011;7700;48.654;9.070;2023-07-20T09:11:47;3.58;;;2.10;;
15198;SDS011;7700;48.654;9.070;2023-07-20T09:14:13;2.08;;;1.77;;
15198;SDS011;7700;48.654;9.070;2023-07-20T09:16:46;2.20;;;1.95;;
15198;SDS011;7700;48.654;9.070;2023-07-20T09:19:14;2.75;;;1.90;;
15198;SDS011;7700;48.654;9.070;2023-07-20T09:21:41;2.13;;;1.70;;
15198;SDS011;7700;48.654;9.070;2023-07-20T09:24:09;1.95;;;1.85;;
15198;SDS011;7700;48.654;9.070;2023-07-20T09:26:40;1.85;;;1.75;;
15198;SDS011;7700;48.654;9.070;2023-07-20T09:29:07;2.03;;;1.80;;
15198;SDS011;7700;48.654;9.070;2023-07-20T09:31:34;4.13;;;1.88;;
15198;SDS011;7700;48.654;9.070;2023-07-20T09:34:00;2.90;;;2.05;;
15198;SDS011;7700;48.654;9.070;2023-07-20T09:36:26;3.08;;;2.47;;
15198;SDS011;7700;48.654;9.070;2023-07-20T09:38:53;2.85;;;1.95;;
15198;SDS011;7700;48.654;9.070;2023-07-20T09:41:21;2.13;;;1.95;;
15198;SDS011;7700;48.654;9.070;2023-07-20T09:43:47;2.75;;;2.25;;
15198;SDS011;7700;48.654;9.070;2023-07-20T09:46:13;3.22;;;2.03;;
15198;SDS011;7700;48.654;9.070;2023-07-20T09:48:42;2.20;;;2.08;;
15198;SDS011;7700;48.654;9.070;2023-07-20T09:51:16;11.35;;;2.15;;
15198;SDS011;7700;48.654;9.070;2023-07-20T09:53:45;2.50;;;2.28;;
15198;SDS011;7700;48.654;9.070;2023-07-20T09:56:12;4.00;;;2.00;;
15198;SDS011;7700;48.654;9.070;2023-07-20T09:58:38;2.47;;;2.22;;
15198;SDS011;7700;48.654;9.070;2023-07-20T10:03:31;3.83;;;3.53;;
15198;SDS011;7700;48.654;9.070;2023-07-20T10:05:59;4.75;;;4.35;;
15198;SDS011;7700;48.654;9.070;2023-07-20T10:08:25;9.68;;;9.18;;
15198;SDS011;7700;48.654;9.070;2023-07-20T10:10:53;22.60;;;13.88;;
15198;SDS011;7700;48.654;9.070;2023-07-20T10:13:25;11.52;;;10.98;;
15198;SDS011;7700;48.654;9.070;2023-07-20T10:15:56;11.20;;;10.43;;
15198;SDS011;7700;48.654;9.070;2023-07-20T10:18:58;16.98;;;15.93;;
15198;SDS011;7700;48.654;9.070;2023-07-20T10:21:17;33.28;;;31.13;;
15198;SDS011;7700;48.654;9.070;2023-07-20T10:23:46;18.83;;;17.55;;
15198;SDS011;7700;48.654;9.070;2023-07-20T10:26:12;6.57;;;6.18;;
15198;SDS011;7700;48.654;9.070;2023-07-20T10:28:39;9.55;;;9.00;;
15198;SDS011;7700;48.654;9.070;2023-07-20T10:31:09;30.38;;;28.42;;
15198;SDS011;7700;48.654;9.070;2023-07-20T10:33:36;18.80;;;17.48;;
15198;SDS011;7700;48.654;9.070;2023-07-20T10:36:03;13.63;;;12.77;;
15198;SDS011;7700;48.654;9.070;2023-07-20T10:38:39;17.70;;;16.35;;
15198;SDS011;7700;48.654;9.070;2023-07-20T10:41:15;33.33;;;31.00;;
15198;SDS011;7700;48.654;9.070;2023-07-20T10:43:45;18.60;;;17.33;;
15198;SDS011;7700;48.654;9.070;2023-07-20T10:46:11;24.60;;;22.75;;
15198;SDS011;7700;48.654;9.070;2023-07-20T10:48:59;47.08;;;44.35;;
15198;SDS011;7700;48.654;9.070;2023-07-20T10:51:24;20.90;;;19.17;;
15198;SDS011;7700;48.654;9.070;2023-07-20T10:53:50;39.65;;;36.83;;
15198;SDS011;7700;48.654;9.070;2023-07-20T10:56:21;34.80;;;32.65;;
15198;SDS011;7700;48.654;9.070;2023-07-20T10:58:47;33.08;;;30.92;;
15198;SDS011;7700;48.654;9.070;2023-07-20T11:01:14;19.73;;;18.35;;
15198;SDS011;7700;48.654;9.070;2023-07-20T11:03:41;29.48;;;27.25;;
15198;SDS011;7700;48.654;9.070;2023-07-20T11:08:55;41.20;;;37.45;;
15198;SDS011;7700;48.654;9.070;2023-07-20T11:11:28;22.42;;;21.52;;
15198;SDS011;7700;48.654;9.070;2023-07-20T11:14:05;52.70;;;47.13;;
15198;SDS011;7700;48.654;9.070;2023-07-20T11:16:35;61.70;;;56.25;;
15198;SDS011;7700;48.654;9.070;2023-07-20T11:19:01;23.33;;;22.23;;
15198;SDS011;7700;48.654;9.070;2023-07-20T11:21:28;41.25;;;36.92;;
15198;SDS011;7700;48.654;9.070;2023-07-20T11:23:54;19.60;;;18.35;;
15198;SDS011;7700;48.654;9.070;2023-07-20T11:26:21;23.83;;;22.33;;
15198;SDS011;7700;48.654;9.070;2023-07-20T11:28:50;22.42;;;20.98;;
15198;SDS011;7700;48.654;9.070;2023-07-20T11:31:17;24.15;;;22.90;;
15198;SDS011;7700;48.654;9.070;2023-07-20T11:33:43;41.17;;;36.88;;
15198;SDS011;7700;48.654;9.070;2023-07-20T11:36:09;29.95;;;28.00;;
15198;SDS011;7700;48.654;9.070;2023-07-20T11:38:35;28.90;;;27.05;;
15198;SDS011;7700;48.654;9.070;2023-07-20T11:41:04;24.60;;;22.25;;
15198;SDS011;7700;48.654;9.070;2023-07-20T11:43:30;30.83;;;27.77;;
15198;SDS011;7700;48.654;9.070;2023-07-20T11:45:56;27.02;;;24.30;;
15198;SDS011;7700;48.654;9.070;2023-07-20T11:48:22;24.15;;;22.67;;
15198;SDS011;7700;48.654;9.070;2023-07-20T11:50:48;27.60;;;25.65;;
15198;SDS011;7700;48.654;9.070;2023-07-20T11:53:14;36.75;;;28.38;;
15198;SDS011;7700;48.654;9.070;2023-07-20T11:55:41;40.85;;;37.75;;
15198;SDS011;7700;48.654;9.070;2023-07-20T11:58:08;29.80;;;26.65;;
15198;SDS011;7700;48.654;9.070;2023-07-20T12:00:36;38.80;;;31.58;;
15198;SDS011;7700;48.654;9.070;2023-07-20T12:03:04;34.58;;;25.48;;
15198;SDS011;7700;48.654;9.070;2023-07-20T12:05:31;30.33;;;28.67;;
15198;SDS011;7700;48.654;9.070;2023-07-20T12:07:57;28.00;;;26.45;;
15198;SDS011;7700;48.654;9.070;2023-07-20T12:10:24;33.85;;;31.30;;
15198;SDS011;7700;48.654;9.070;2023-07-20T12:12:51;29.67;;;27.98;;
15198;SDS011;7700;48.654;9.070;2023-07-20T12:15:20;17.63;;;16.42;;
15198;SDS011;7700;48.654;9.070;2023-07-20T12:17:46;41.13;;;36.97;;
15198;SDS011;7700;48.654;9.070;2023-07-20T12:20:24;43.53;;;40.35;;
15198;SDS011;7700;48.654;9.070;2023-07-20T12:22:50;42.70;;;39.40;;
15198;SDS011;7700;48.654;9.070;2023-07-20T12:25:16;31.38;;;28.90;;
15198;SDS011;7700;48.654;9.070;2023-07-20T12:27:45;18.13;;;16.63;;
15198;SDS011;7700;48.654;9.070;2023-07-20T12:30:12;25.92;;;23.98;;
15198;SDS011;7700;48.654;9.070;2023-07-20T12:32:38;46.53;;;43.22;;
15198;SDS011;7700;48.654;9.070;2023-07-20T12:35:05;29.27;;;27.13;;
15198;SDS011;7700;48.654;9.070;2023-07-20T12:37:31;31.20;;;29.27;;
15198;SDS011;7700;48.654;9.070;2023-07-20T12:39:57;36.83;;;33.53;;
15198;SDS011;7700;48.654;9.070;2023-07-20T12:42:23;23.33;;;21.58;;
15198;SDS011;7700;48.654;9.070;2023-07-20T12:44:49;22.75;;;21.52;;
15198;SDS011;7700;48.654;9.070;2023-07-20T12:47:16;22.75;;;21.38;;
15198;SDS011;7700;48.654;9.070;2023-07-20T12:49:42;35.53;;;32.92;;
15198;SDS011;7700;48.654;9.070;2023-07-20T12:52:11;41.17;;;37.05;;
15198;SDS011;7700;48.654;9.070;2023-07-20T12:54:38;34.45;;;31.65;;
15198;SDS011;7700;48.654;9.070;2023-07-20T12:57:04;30.13;;;27.50;;
15198;SDS011;7700;48.654;9.070;2023-07-20T12:59:30;54.53;;;49.35;;
15198;SDS011;7700;48.654;9.070;2023-07-20T13:01:56;29.05;;;27.20;;
15198;SDS011;7700;48.654;9.070;2023-07-20T13:04:22;25.38;;;23.73;;
15198;SDS011;7700;48.654;9.070;2023-07-20T13:06:48;30.30;;;28.25;;
15198;SDS011;7700;48.654;9.070;2023-07-20T13:09:15;46.92;;;39.80;;
15198;SDS011;7700;48.654;9.070;2023-07-20T13:11:41;76.40;;;57.30;;
15198;SDS011;7700;48.654;9.070;2023-07-20T13:14:07;38.50;;;35.47;;
15198;SDS011;7700;48.654;9.070;2023-07-20T13:16:34;24.48;;;22.83;;
15198;SDS011;7700;48.654;9.070;2023-07-20T13:19:00;49.75;;;45.35;;
15198;SDS011;7700;48.654;9.070;2023-07-20T13:21:26;36.95;;;34.17;;
15198;SDS011;7700;48.654;9.070;2023-07-20T13:23:53;49.47;;;45.17;;
15198;SDS011;7700;48.654;9.070;2023-07-20T13:26:19;58.72;;;52.72;;
15198;SDS011;7700;48.654;9.070;2023-07-20T13:28:45;28.65;;;25.55;;
15198;SDS011;7700;48.654;9.070;2023-07-20T13:31:11;32.00;;;29.90;;
15198;SDS011;7700;48.654;9.070;2023-07-20T13:33:37;41.83;;;38.90;;
15198;SDS011;7700;48.654;9.070;2023-07-20T13:36:03;43.67;;;40.47;;
15198;SDS011;7700;48.654;9.070;2023-07-20T13:38:31;51.28;;;46.45;;
15198;SDS011;7700;48.654;9.070;2023-07-20T13:40:57;46.65;;;42.70;;
15198;SDS011;7700;48.654;9.070;2023-07-20T13:43:23;42.33;;;38.05;;
15198;SDS011;7700;48.654;9.070;2023-07-20T13:45:49;72.95;;;64.05;;
15198;SDS011;7700;48.654;9.070;2023-07-20T13:48:15;19.90;;;18.55;;
15198;SDS011;7700;48.654;9.070;2023-07-20T13:50:44;34.15;;;28.00;;
15198;SDS011;7700;48.654;9.070;2023-07-20T13:53:10;17.52;;;16.20;;
15198;SDS011;7700;48.654;9.070;2023-07-20T13:55:36;23.85;;;21.65;;
15198;SDS011;7700;48.654;9.070;2023-07-20T13:58:03;35.83;;;32.90;;
15198;SDS011;7700;48.654;9.070;2023-07-20T14:00:29;39.95;;;37.53;;
15198;SDS011;7700;48.654;9.070;2023-07-20T14:02:58;44.03;;;38.90;;
15198;SDS011;7700;48.654;9.070;2023-07-20T14:05:24;38.17;;;34.45;;
15198;SDS011;7700;48.654;9.070;2023-07-20T14:07:50;35.08;;;31.80;;
15198;SDS011;7700;48.654;9.070;2023-07-20T14:10:16;41.45;;;37.53;;
15198;SDS011;7700;48.654;9.070;2023-07-20T14:12:43;43.08;;;38.40;;
15198;SDS011;7700;48.654;9.070;2023-07-20T14:15:10;22.05;;;20.30;;
15198;SDS011;7700;48.654;9.070;2023-07-20T14:17:36;28.15;;;25.98;;
15198;SDS011;7700;48.654;9.070;2023-07-20T14:20:02;25.83;;;24.08;;
15198;SDS011;7700;48.654;9.070;2023-07-20T14:22:31;30.25;;;27.13;;
15198;SDS011;7700;48.654;9.070;2023-07-20T14:24:57;36.25;;;32.33;;
15198;SDS011;7700;48.654;9.070;2023-07-20T14:27:24;48.90;;;40.95;;
15198;SDS011;7700;48.654;9.070;2023-07-20T14:29:50;30.58;;;28.40;;
15198;SDS011;7700;48.654;9.070;2023-07-20T14:32:16;42.17;;;34.15;;
15198;SDS011;7700;48.654;9.070;2023-07-20T14:34:42;36.05;;;32.95;;
15198;SDS011;7700;48.654;9.070;2023-07-20T14:37:08;46.78;;;42.67;;
15198;SDS011;7700;48.654;9.070;2023-07-20T14:39:34;49.13;;;44.28;;
15198;SDS011;7700;48.654;9.070;2023-07-20T14:42:00;57.13;;;51.55;;
15198;SDS011;7700;48.654;9.070;2023-07-20T14:44:28;35.95;;;32.40;;
15198;SDS011;7700;48.654;9.070;2023-07-20T14:46:54;36.92;;;33.92;;
15198;SDS011;7700;48.654;9.070;2023-07-20T14:49:21;28.15;;;26.20;;
15198;SDS011;7700;48.654;9.070;2023-07-20T14:51:47;39.17;;;35.17;;
15198;SDS011;7700;48.654;9.070;2023-07-20T14:54:14;42.33;;;38.40;;
15198;SDS011;7700;48.654;9.070;2023-07-20T14:56:47;24.67;;;22.88;;
15198;SDS011;7700;48.654;9.070;2023-07-20T14:59:14;37.65;;;34.05;;
15198;SDS011;7700;48.654;9.070;2023-07-20T15:01:40;27.83;;;25.77;;
15198;SDS011;7700;48.654;9.070;2023-07-20T15:04:07;41.45;;;31.15;;